Time;durP1;ratioP1;P1;durP2;ratioP2;P2;SDS_P1;SDS_P2;PMS_P1;PMS_P2;Temp;Humidity;BMP_temperature;BMP_pressure;BME280_temperature;BME280_humidity;BME280_pressure;Samples;Min_cycle;Max_cycle;Signal;HPM_P1;HPM_P2
2021/11/09 00:01:42;;;;;;;13.55;4.93;;;9.20;99.90;;;;;;4120255;28;20100;-74
2021/11/09 00:03:49;;;;;;;11.95;5.43;;;9.20;99.90;;;;;;4118971;28;20157;-74
2021/11/09 00:05:53;;;;;;;18.30;6.95;;;9.10;99.90;;;;;;4118492;28;20046;-74
2021/11/09 00:08:01;;;;;;;12.40;5.55;;;9.10;99.90;;;;;;4118814;28;20030;-74
2021/11/09 00:10:07;;;;;;;16.58;6.47;;;9.10;99.90;;;;;;4117769;28;20406;-74
2021/11/09 00:12:08;;;;;;;13.75;5.90;;;9.10;99.90;;;;;;4118285;28;20061;-74
2021/11/09 00:14:09;;;;;;;12.88;5.60;;;9.10;99.90;;;;;;4120302;28;20661;-74
2021/11/09 00:16:11;;;;;;;12.32;4.80;;;9.10;99.90;;;;;;4120407;28;20169;-74
2021/11/09 00:18:11;;;;;;;13.23;5.32;;;9.10;99.90;;;;;;4118876;28;20049;-74
2021/11/09 00:20:15;;;;;;;15.63;5.75;;;9.10;99.90;;;;;;4119639;28;20026;-73
2021/11/09 00:22:16;;;;;;;12.98;4.95;;;9.00;99.90;;;;;;4118960;28;20042;-74
2021/11/09 00:24:17;;;;;;;10.98;4.70;;;9.10;99.90;;;;;;4120327;28;20030;-74
2021/11/09 00:26:18;;;;;;;13.60;4.88;;;9.00;99.90;;;;;;4119713;28;20065;-74
2021/11/09 00:28:20;;;;;;;11.25;4.75;;;9.00;99.90;;;;;;4119932;28;20030;-74
2021/11/09 00:30:23;;;;;;;10.00;4.78;;;9.00;99.90;;;;;;4117059;28;20077;-74
2021/11/09 00:32:24;;;;;;;9.20;4.78;;;9.00;99.90;;;;;;4120261;28;20030;-74
2021/11/09 00:34:25;;;;;;;13.85;5.53;;;8.90;99.90;;;;;;4119421;28;20443;-74
2021/11/09 00:36:26;;;;;;;11.30;5.25;;;9.00;99.90;;;;;;4119695;28;20124;-74
2021/11/09 00:38:26;;;;;;;12.68;5.03;;;8.90;99.90;;;;;;4119777;28;20479;-74
2021/11/09 00:40:31;;;;;;;10.43;5.03;;;8.90;99.90;;;;;;4119580;28;20046;-74
2021/11/09 00:42:32;;;;;;;15.18;5.97;;;8.90;99.90;;;;;;4118521;28;20607;-74
2021/11/09 00:44:33;;;;;;;17.27;5.90;;;8.80;99.90;;;;;;4102293;28;20035;-74
2021/11/09 00:46:33;;;;;;;14.13;5.30;;;8.90;99.90;;;;;;4119983;28;20484;-74
2021/11/09 00:48:34;;;;;;;11.30;5.60;;;8.80;99.90;;;;;;4120019;28;20053;-74
2021/11/09 00:50:36;;;;;;;10.35;5.05;;;8.80;99.90;;;;;;4119423;28;20041;-74
2021/11/09 00:52:37;;;;;;;9.38;4.78;;;8.80;99.90;;;;;;4118181;28;20031;-74
2021/11/09 00:54:39;;;;;;;11.15;4.60;;;8.80;99.90;;;;;;4117349;28;20174;-75
2021/11/09 00:56:40;;;;;;;9.65;4.90;;;8.90;99.90;;;;;;4119136;28;20428;-74
2021/11/09 00:58:40;;;;;;;9.45;4.05;;;8.80;99.90;;;;;;4119191;28;20026;-74
2021/11/09 01:00:42;;;;;;;8.38;4.38;;;8.80;99.90;;;;;;4116772;28;20631;-74
2021/11/09 01:02:43;;;;;;;13.37;5.10;;;8.80;99.90;;;;;;4119743;28;20514;-74
2021/11/09 01:04:44;;;;;;;11.57;5.30;;;8.70;99.90;;;;;;4109895;28;20110;-74
2021/11/09 01:06:45;;;;;;;12.32;5.47;;;8.70;99.90;;;;;;4119412;28;20509;-74
2021/11/09 01:08:46;;;;;;;12.48;5.47;;;8.70;99.90;;;;;;4119997;28;20026;-74
2021/11/09 01:10:49;;;;;;;11.70;5.50;;;8.70;99.90;;;;;;4116932;28;20391;-74
2021/11/09 01:12:50;;;;;;;16.05;6.00;;;8.70;99.90;;;;;;4119362;28;20027;-74
2021/11/09 01:14:51;;;;;;;16.77;6.03;;;8.70;99.90;;;;;;4119545;28;20038;-74
2021/11/09 01:16:52;;;;;;;18.15;7.25;;;8.70;99.90;;;;;;4101761;28;20031;-74
2021/11/09 01:18:55;;;;;;;18.75;7.15;;;8.60;99.90;;;;;;4119828;28;20042;-74
2021/11/09 01:20:57;;;;;;;21.10;7.00;;;8.50;99.90;;;;;;4119020;28;20068;-74
2021/11/09 01:22:59;;;;;;;15.63;7.20;;;8.50;99.90;;;;;;4118824;28;20070;-74
2021/11/09 01:25:01;;;;;;;17.30;6.57;;;8.40;99.90;;;;;;4117180;28;20277;-74
2021/11/09 01:27:02;;;;;;;14.82;6.35;;;8.40;99.90;;;;;;4114754;28;20038;-74
2021/11/09 01:29:05;;;;;;;15.77;5.97;;;8.40;99.90;;;;;;4117282;28;20461;-74
2021/11/09 01:31:07;;;;;;;13.63;5.72;;;8.40;99.90;;;;;;4118550;28;20045;-74
2021/11/09 01:33:09;;;;;;;12.98;5.20;;;8.40;99.90;;;;;;4118594;28;20041;-74
2021/11/09 01:35:10;;;;;;;13.75;5.32;;;8.40;99.90;;;;;;4118706;28;20081;-74
2021/11/09 01:37:12;;;;;;;17.42;6.45;;;8.50;99.90;;;;;;4118800;28;20121;-74
2021/11/09 01:39:12;;;;;;;10.18;4.97;;;8.50;99.90;;;;;;4117196;28;20066;-74
2021/11/09 01:41:14;;;;;;;13.00;5.35;;;8.50;99.90;;;;;;4118582;28;20031;-74
2021/11/09 01:43:15;;;;;;;13.60;5.00;;;8.50;99.90;;;;;;4119175;28;20160;-74
2021/11/09 01:45:17;;;;;;;13.68;6.32;;;8.60;99.90;;;;;;4119376;28;20963;-74
2021/11/09 01:47:19;;;;;;;10.88;5.55;;;8.60;99.90;;;;;;4118792;28;20034;-74
2021/11/09 01:49:19;;;;;;;15.93;5.78;;;8.50;99.90;;;;;;4116866;28;20046;-74
2021/11/09 01:51:20;;;;;;;12.00;5.55;;;8.50;99.90;;;;;;4116749;28;20026;-74
2021/11/09 01:53:22;;;;;;;14.68;5.72;;;8.50;99.90;;;;;;4117479;28;20147;-74
2021/11/09 01:55:26;;;;;;;16.27;5.72;;;8.50;99.90;;;;;;4116486;28;20144;-74
2021/11/09 01:57:27;;;;;;;10.13;4.63;;;8.50;99.90;;;;;;4118359;28;20041;-74
2021/11/09 01:59:30;;;;;;;13.63;5.43;;;8.50;99.90;;;;;;4119247;28;20046;-74
2021/11/09 02:01:31;;;;;;;16.27;6.75;;;8.50;99.90;;;;;;4118479;28;20031;-74
2021/11/09 02:03:33;;;;;;;14.32;5.78;;;8.50;99.90;;;;;;4118511;28;20042;-74
2021/11/09 02:05:34;;;;;;;13.30;5.47;;;8.50;99.90;;;;;;4117436;28;20128;-74
2021/11/09 02:07:35;;;;;;;17.45;6.35;;;8.50;99.90;;;;;;4116925;28;20038;-74
2021/11/09 02:09:35;;;;;;;15.27;5.65;;;8.50;99.90;;;;;;4118563;28;20125;-74
2021/11/09 02:11:37;;;;;;;18.73;6.82;;;8.50;99.90;;;;;;4118542;28;20069;-74
2021/11/09 02:13:39;;;;;;;12.30;5.82;;;8.50;99.90;;;;;;4118753;28;20034;-74
2021/11/09 02:15:41;;;;;;;12.02;5.47;;;8.40;99.90;;;;;;4118659;28;20038;-74
2021/11/09 02:17:44;;;;;;;9.82;5.20;;;8.40;99.90;;;;;;4118181;28;20088;-74
2021/11/09 02:19:45;;;;;;;13.95;5.70;;;8.40;99.90;;;;;;4117094;28;20038;-74
2021/11/09 02:21:46;;;;;;;19.80;5.97;;;8.50;99.90;;;;;;4119998;28;20386;-74
2021/11/09 02:23:48;;;;;;;15.38;5.88;;;8.40;99.90;;;;;;4116609;28;20050;-74
2021/11/09 02:25:49;;;;;;;13.88;5.95;;;8.40;99.90;;;;;;4118399;28;20485;-74
2021/11/09 02:27:50;;;;;;;13.90;5.15;;;8.40;99.90;;;;;;4118954;28;20042;-74
2021/11/09 02:29:51;;;;;;;11.60;5.45;;;8.40;99.90;;;;;;4116181;28;20101;-74
2021/11/09 02:31:53;;;;;;;13.32;5.78;;;8.40;99.90;;;;;;4117332;28;20034;-74
2021/11/09 02:33:53;;;;;;;18.08;5.72;;;8.40;99.90;;;;;;4117118;28;20530;-74
2021/11/09 02:35:54;;;;;;;12.68;5.72;;;8.40;99.90;;;;;;4118293;28;20045;-74
2021/11/09 02:37:58;;;;;;;12.65;5.30;;;8.40;99.90;;;;;;4117932;28;20134;-74
2021/11/09 02:39:59;;;;;;;13.55;5.53;;;8.40;99.90;;;;;;4116208;28;20038;-74
2021/11/09 02:41:59;;;;;;;12.75;5.28;;;8.30;99.90;;;;;;4118693;28;20038;-74
2021/11/09 02:44:01;;;;;;;13.23;5.15;;;8.30;99.90;;;;;;4116441;28;20030;-74
2021/11/09 02:48:14;;;;;;;12.32;5.65;;;8.30;99.90;;;;;;4116439;28;20429;-74
2021/11/09 02:50:18;;;;;;;17.88;6.10;;;8.30;99.90;;;;;;4117026;28;20031;-74
2021/11/09 02:52:18;;;;;;;16.13;5.88;;;8.30;99.90;;;;;;4118539;28;20045;-74
2021/11/09 02:54:38;;;;;;;12.10;5.95;;;8.30;99.90;;;;;;4116823;28;20038;-74
2021/11/09 02:56:56;;;;;;;19.02;6.72;;;8.30;99.90;;;;;;4117531;28;20089;-74
2021/11/09 02:59:07;;;;;;;16.75;6.25;;;8.20;99.90;;;;;;4116481;28;20031;-74
2021/11/09 03:01:14;;;;;;;13.25;6.43;;;8.30;99.90;;;;;;4113769;28;20054;-74
2021/11/09 03:03:21;;;;;;;16.48;5.97;;;8.20;99.90;;;;;;4117898;28;20025;-74
2021/11/09 03:05:48;;;;;;;14.80;5.90;;;8.20;99.90;;;;;;4118122;28;20087;-74
2021/11/09 03:10:04;;;;;;;15.98;6.13;;;8.20;99.90;;;;;;4119388;28;20754;-74
2021/11/09 03:12:08;;;;;;;11.95;5.38;;;8.20;99.90;;;;;;4119065;28;20101;-75
2021/11/09 03:14:09;;;;;;;11.38;5.20;;;8.20;99.90;;;;;;4119420;28;20034;-74
2021/11/09 03:16:13;;;;;;;10.88;5.13;;;8.20;99.90;;;;;;4102976;28;20034;-74
2021/11/09 03:18:16;;;;;;;10.70;5.35;;;8.20;99.90;;;;;;4121263;28;20030;-74
2021/11/09 03:20:28;;;;;;;12.38;5.43;;;8.20;99.90;;;;;;4118918;28;20034;-74
2021/11/09 03:45:44;;;;;;;13.73;5.47;;;8.10;99.90;;;;;;4119837;28;20046;-74
2021/11/09 03:47:48;;;;;;;15.27;5.32;;;8.00;99.90;;;;;;4116888;28;20550;-74
2021/11/09 03:49:50;;;;;;;14.48;5.97;;;8.00;99.90;;;;;;4120499;28;20022;-74
2021/11/09 03:51:52;;;;;;;15.95;6.28;;;8.00;99.90;;;;;;4120156;28;20084;-74
2021/11/09 03:53:58;;;;;;;13.18;6.30;;;8.00;99.90;;;;;;4119194;28;20045;-74
2021/11/09 03:58:36;;;;;;;17.63;6.32;;;8.00;99.90;;;;;;4105136;28;20113;-74
2021/11/09 04:05:21;;;;;;;17.90;5.88;;;7.90;99.90;;;;;;4117408;28;20046;-74
2021/11/09 04:09:33;;;;;;;14.70;5.22;;;7.90;99.90;;;;;;4118718;28;20054;-74
2021/11/09 04:13:48;;;;;;;15.63;6.22;;;7.80;99.90;;;;;;4120137;28;20039;-74
2021/11/09 04:16:04;;;;;;;15.68;5.78;;;7.80;99.90;;;;;;4118230;28;20058;-74
2021/11/09 04:20:13;;;;;;;17.90;6.90;;;7.70;99.90;;;;;;4117996;28;20095;-74
2021/11/09 04:48:51;;;;;;;19.83;6.75;;;7.50;99.90;;;;;;4118948;28;20030;-74
2021/11/09 05:09:00;;;;;;;17.30;6.85;;;7.10;99.90;;;;;;4118190;28;20506;-74
2021/11/09 05:11:01;;;;;;;15.85;6.60;;;7.10;99.90;;;;;;4118201;28;20827;-74
2021/11/09 05:13:02;;;;;;;16.80;7.13;;;7.10;99.90;;;;;;4119464;28;20042;-74
2021/11/09 05:15:03;;;;;;;18.02;6.65;;;7.10;99.90;;;;;;4121787;28;20634;-74
2021/11/09 05:17:04;;;;;;;23.05;7.85;;;7.10;99.90;;;;;;4119081;28;20034;-74
2021/11/09 05:19:05;;;;;;;24.95;7.78;;;7.10;99.90;;;;;;4114545;28;20207;-74
2021/11/09 05:21:07;;;;;;;15.73;6.68;;;7.10;99.90;;;;;;4099558;28;20454;-74
2021/11/09 05:23:07;;;;;;;21.83;6.75;;;7.20;99.90;;;;;;4117199;28;20042;-74
2021/11/09 05:25:08;;;;;;;16.73;6.30;;;7.20;99.90;;;;;;4118289;28;20631;-74
2021/11/09 05:27:15;;;;;;;15.07;6.70;;;7.20;99.90;;;;;;4119206;28;20053;-74
2021/11/09 05:29:16;;;;;;;16.48;5.75;;;7.20;99.90;;;;;;4118577;28;20027;-74
2021/11/09 05:31:17;;;;;;;18.13;6.38;;;7.30;99.90;;;;;;4118798;28;20029;-74
2021/11/09 05:33:21;;;;;;;19.23;6.93;;;7.40;99.90;;;;;;4116145;28;20027;-74
2021/11/09 05:35:23;;;;;;;17.65;7.22;;;7.40;99.90;;;;;;4120329;28;20046;-74
2021/11/09 05:37:30;;;;;;;;;;;7.40;99.90;;;;;;4118501;28;20043;-74
2021/11/09 05:41:34;;;;;;;12.68;5.50;;;7.50;99.90;;;;;;4117715;28;20062;-74
2021/11/09 05:43:35;;;;;;;11.23;4.93;;;7.50;99.90;;;;;;4114153;28;20126;-73
2021/11/09 05:45:35;;;;;;;11.10;4.95;;;7.50;99.90;;;;;;4119860;28;20065;-74
2021/11/09 05:47:37;;;;;;;13.48;5.88;;;7.50;99.90;;;;;;4119344;28;20031;-74
2021/11/09 05:49:39;;;;;;;11.32;5.55;;;7.50;99.90;;;;;;4121048;28;20023;-74
2021/11/09 05:51:40;;;;;;;13.35;5.82;;;7.60;99.90;;;;;;4119571;28;20030;-74
2021/11/09 05:53:40;;;;;;;19.77;6.63;;;7.60;99.90;;;;;;4119994;28;20091;-74
2021/11/09 05:55:41;;;;;;;13.63;5.75;;;7.60;99.90;;;;;;4118579;28;20611;-74
2021/11/09 05:57:42;;;;;;;13.38;5.85;;;7.60;99.90;;;;;;4120136;28;20104;-74
2021/11/09 05:59:43;;;;;;;15.25;6.05;;;7.60;99.90;;;;;;4123011;28;20032;-74
2021/11/09 06:01:44;;;;;;;15.50;6.57;;;7.60;99.90;;;;;;4117766;28;20030;-74
2021/11/09 06:03:44;;;;;;;14.35;5.95;;;7.60;99.90;;;;;;4120108;28;20038;-74
2021/11/09 06:05:46;;;;;;;15.35;6.47;;;7.70;99.90;;;;;;4117363;28;20042;-74
2021/11/09 06:07:46;;;;;;;14.73;5.53;;;7.60;99.90;;;;;;4117392;28;21325;-74
2021/11/09 06:09:47;;;;;;;14.85;6.32;;;7.70;99.90;;;;;;4117247;28;20049;-74
2021/11/09 06:11:48;;;;;;;12.73;5.90;;;7.60;99.90;;;;;;4120586;28;20030;-74
2021/11/09 06:13:48;;;;;;;12.88;5.30;;;7.60;99.90;;;;;;4116368;28;20531;-74
2021/11/09 06:15:49;;;;;;;16.15;5.70;;;7.60;99.90;;;;;;4116228;28;20741;-74
2021/11/09 06:17:49;;;;;;;15.43;6.05;;;7.60;99.90;;;;;;4119947;28;20038;-74
2021/11/09 06:19:50;;;;;;;13.18;5.65;;;7.60;99.90;;;;;;4120737;28;20054;-74
2021/11/09 06:21:52;;;;;;;15.80;6.20;;;7.60;99.90;;;;;;4118830;28;20110;-74
2021/11/09 06:23:53;;;;;;;14.68;5.70;;;7.60;99.90;;;;;;4113091;28;20056;-74
2021/11/09 06:25:54;;;;;;;17.73;6.38;;;7.60;99.90;;;;;;4120939;28;20043;-74
2021/11/09 06:27:55;;;;;;;14.35;6.00;;;7.60;99.90;;;;;;4123453;28;20861;-74
2021/11/09 06:29:56;;;;;;;10.98;4.95;;;7.60;99.90;;;;;;4119367;28;20772;-74
2021/11/09 06:31:57;;;;;;;11.48;5.65;;;7.70;99.90;;;;;;4119463;28;20038;-74
2021/11/09 06:33:58;;;;;;;11.25;5.07;;;7.60;99.90;;;;;;4121980;28;20033;-74
2021/11/09 06:35:59;;;;;;;11.77;5.18;;;7.60;99.90;;;;;;4119246;28;20442;-74
2021/11/09 06:37:59;;;;;;;14.07;5.95;;;7.60;99.90;;;;;;4122154;28;20042;-74
2021/11/09 06:40:01;;;;;;;15.65;6.25;;;7.60;99.90;;;;;;4102023;28;20074;-74
2021/11/09 06:42:01;;;;;;;13.23;6.25;;;7.60;99.90;;;;;;4138015;28;20098;-74
2021/11/09 06:44:03;;;;;;;11.25;5.65;;;7.60;99.90;;;;;;4125028;28;20030;-74
2021/11/09 06:46:03;;;;;;;15.20;5.68;;;7.60;99.90;;;;;;4122358;28;20041;-74
2021/11/09 06:48:05;;;;;;;13.35;5.90;;;7.60;99.90;;;;;;4123118;28;20445;-74
2021/11/09 06:50:08;;;;;;;15.10;6.18;;;7.60;99.90;;;;;;4126422;28;20039;-74
2021/11/09 06:52:08;;;;;;;14.27;6.20;;;7.60;99.90;;;;;;4122449;28;20045;-74
2021/11/09 06:54:09;;;;;;;12.27;5.95;;;7.60;99.90;;;;;;4124483;28;20121;-74
2021/11/09 06:56:10;;;;;;;13.15;6.22;;;7.60;99.90;;;;;;4125946;28;20039;-74
2021/11/09 06:58:11;;;;;;;16.70;6.70;;;7.60;99.90;;;;;;4122939;28;20114;-74
2021/11/09 07:00:15;;;;;;;14.32;5.82;;;7.50;99.90;;;;;;4124546;28;20078;-74
2021/11/09 07:02:17;;;;;;;14.95;7.10;;;7.50;99.90;;;;;;4119911;28;20121;-74
2021/11/09 07:04:17;;;;;;;13.07;6.30;;;7.50;99.90;;;;;;4122768;28;20402;-74
2021/11/09 07:06:19;;;;;;;11.82;5.55;;;7.50;99.90;;;;;;4123038;28;20046;-74
2021/11/09 07:08:20;;;;;;;12.77;5.60;;;7.50;99.90;;;;;;4122450;28;20076;-74
2021/11/09 07:10:21;;;;;;;13.43;5.50;;;7.50;99.90;;;;;;4128099;28;20054;-75
2021/11/09 07:12:22;;;;;;;11.90;4.88;;;7.50;99.90;;;;;;4109069;28;20065;-75
2021/11/09 07:14:23;;;;;;;11.77;5.38;;;7.50;99.90;;;;;;4125705;28;20034;-75
2021/11/09 07:16:24;;;;;;;12.27;5.03;;;7.50;99.90;;;;;;4128160;28;20409;-72
2021/11/09 07:18:25;;;;;;;14.88;5.43;;;7.50;99.90;;;;;;4125987;28;20042;-72
2021/11/09 07:20:26;;;;;;;13.52;5.15;;;7.50;99.90;;;;;;4123075;28;20034;-72
2021/11/09 07:22:27;;;;;;;12.65;4.78;;;7.50;99.90;;;;;;4127720;28;20054;-72
2021/11/09 07:24:30;;;;;;;12.32;5.57;;;7.50;99.90;;;;;;4123286;28;20045;-72
2021/11/09 07:26:31;;;;;;;13.98;5.65;;;7.50;99.90;;;;;;4123125;28;20923;-72
2021/11/09 07:28:32;;;;;;;16.77;5.72;;;7.50;99.90;;;;;;4120538;28;20050;-72
2021/11/09 07:30:42;;;;;;;18.23;5.75;;;7.50;99.90;;;;;;4123378;28;20042;-72
2021/11/09 07:32:45;;;;;;;16.67;6.32;;;7.50;99.90;;;;;;4125474;28;20035;-72
2021/11/09 07:34:46;;;;;;;13.13;5.93;;;7.50;99.90;;;;;;4123392;28;20042;-72
2021/11/09 07:36:47;;;;;;;12.82;5.28;;;7.50;99.90;;;;;;4122491;28;20482;-72
2021/11/09 07:38:47;;;;;;;12.27;5.40;;;7.50;99.90;;;;;;4126121;28;20037;-72
2021/11/09 07:40:49;;;;;;;17.33;6.43;;;7.50;99.90;;;;;;4123034;28;20113;-72
2021/11/09 07:42:50;;;;;;;13.80;5.97;;;7.60;99.90;;;;;;4123332;28;20050;-72
2021/11/09 07:44:52;;;;;;;16.15;5.65;;;7.60;99.90;;;;;;4124182;28;20104;-72
2021/11/09 07:46:53;;;;;;;16.25;6.20;;;7.70;99.90;;;;;;4122705;28;20045;-72
2021/11/09 07:48:54;;;;;;;15.30;6.20;;;7.70;99.90;;;;;;4122917;28;20465;-72
2021/11/09 07:50:55;;;;;;;19.10;7.50;;;7.70;99.90;;;;;;4124374;28;20121;-72
2021/11/09 07:53:00;;;;;;;15.48;6.60;;;7.80;99.90;;;;;;4121653;28;20064;-72
2021/11/09 07:55:04;;;;;;;16.10;6.95;;;7.80;99.90;;;;;;4128292;28;20037;-72
2021/11/09 07:57:10;;;;;;;15.70;6.00;;;7.90;99.90;;;;;;4124317;28;20026;-72
2021/11/09 07:59:34;;;;;;;15.40;6.25;;;8.00;99.90;;;;;;4125273;28;20054;-72
2021/11/09 08:01:44;;;;;;;17.10;6.22;;;8.20;99.90;;;;;;4122946;28;20042;-72
2021/11/09 08:03:49;;;;;;;14.68;6.07;;;8.50;99.90;;;;;;4123162;28;20049;-72
2021/11/09 08:08:00;;;;;;;16.27;6.43;;;9.00;99.90;;;;;;4122510;28;20767;-72
2021/11/09 08:10:01;;;;;;;19.98;6.07;;;9.30;99.90;;;;;;4120305;28;20048;-72
2021/11/09 08:12:05;;;;;;;19.98;6.72;;;9.60;99.90;;;;;;4122659;28;20641;-72
2021/11/09 08:14:05;;;;;;;15.52;6.28;;;9.90;99.90;;;;;;4120414;28;20105;-72
2021/11/09 08:16:06;;;;;;;18.85;6.90;;;10.30;99.90;;;;;;4124963;28;20038;-71
2021/11/09 08:18:07;;;;;;;17.38;6.60;;;10.50;99.90;;;;;;4119477;28;20026;-71
2021/11/09 08:20:08;;;;;;;18.25;6.65;;;10.80;99.90;;;;;;4121530;28;20053;-72
2021/11/09 08:22:09;;;;;;;14.93;6.00;;;11.10;99.90;;;;;;4122440;28;20035;-72
2021/11/09 08:24:13;;;;;;;17.90;6.68;;;11.30;99.90;;;;;;4125344;28;20030;-72
2021/11/09 08:26:16;;;;;;;15.10;5.70;;;11.60;99.90;;;;;;4123237;28;20447;-72
2021/11/09 08:28:17;;;;;;;17.70;5.93;;;11.80;99.90;;;;;;4121061;28;20034;-72
2021/11/09 08:30:18;;;;;;;15.35;5.93;;;12.10;99.90;;;;;;4122539;28;20118;-72
2021/11/09 08:32:20;;;;;;;19.50;5.95;;;12.40;99.90;;;;;;4122063;28;20050;-72
2021/11/09 08:34:22;;;;;;;15.35;6.22;;;12.60;99.90;;;;;;4124421;28;20129;-72
2021/11/09 08:36:25;;;;;;;14.70;5.47;;;12.90;99.90;;;;;;4122940;28;20074;-72
2021/11/09 08:38:25;;;;;;;13.05;5.90;;;13.10;99.90;;;;;;4120158;28;20093;-72
2021/11/09 08:40:26;;;;;;;19.80;6.43;;;13.10;99.90;;;;;;4120831;28;20042;-72
2021/11/09 08:42:35;;;;;;;21.15;6.20;;;13.30;99.90;;;;;;4121736;28;20042;-72
2021/11/09 08:44:42;;;;;;;17.23;5.78;;;13.30;99.90;;;;;;4121554;28;20038;-72
2021/11/09 08:46:47;;;;;;;16.60;6.00;;;13.60;99.90;;;;;;4122307;28;20041;-72
2021/11/09 08:48:50;;;;;;;15.90;5.47;;;13.80;99.90;;;;;;4120079;28;20033;-72
2021/11/09 08:50:54;;;;;;;15.55;5.75;;;13.80;99.90;;;;;;4122030;28;20065;-72
2021/11/09 08:52:56;;;;;;;19.52;5.97;;;14.00;99.90;;;;;;4123294;28;20170;-72
2021/11/09 08:55:22;;;;;;;19.50;5.30;;;14.20;99.90;;;;;;4119132;28;20125;-72
2021/11/09 09:04:22;;;;;;;19.17;5.47;;;14.30;99.90;;;;;;4121703;28;20042;-73
2021/11/09 09:06:24;;;;;;;12.48;5.45;;;14.00;99.90;;;;;;4123966;28;20685;-73
2021/11/09 09:08:25;;;;;;;14.23;5.43;;;13.90;99.90;;;;;;4122262;28;20129;-72
2021/11/09 09:10:26;;;;;;;20.00;6.13;;;13.70;99.90;;;;;;4123068;28;20065;-73
2021/11/09 09:12:29;;;;;;;11.60;5.30;;;13.60;99.90;;;;;;4120581;28;20129;-77
2021/11/09 09:14:30;;;;;;;14.93;5.13;;;13.60;99.90;;;;;;4124208;28;20042;-73
2021/11/09 09:16:34;;;;;;;12.15;5.50;;;13.60;99.90;;;;;;4125456;28;20490;-73
2021/11/09 09:18:34;;;;;;;16.05;5.75;;;13.60;99.90;;;;;;4124616;28;20053;-73
2021/11/09 09:20:44;;;;;;;15.60;5.10;;;13.40;99.90;;;;;;4122587;28;20068;-73
2021/11/09 09:22:51;;;;;;;15.15;5.45;;;13.30;99.90;;;;;;4124750;28;20107;-73
2021/11/09 09:27:14;;;;;;;16.85;5.78;;;13.30;99.90;;;;;;4122680;28;20628;-72
2021/11/09 09:52:07;;;;;;;11.77;4.70;;;13.20;99.90;;;;;;4093608;28;20042;-73
2021/11/09 09:52:40;;;;;;;18.88;5.55;;;13.00;99.90;;;;;;4069468;29;20080;-73
2021/11/09 09:54:51;;;;;;;13.43;5.00;;;13.00;99.90;;;;;;4121528;28;20068;-73
2021/11/09 09:56:54;;;;;;;15.35;4.88;;;12.90;99.90;;;;;;4119261;28;20144;-73
2021/11/09 09:58:54;;;;;;;12.85;4.72;;;12.90;99.90;;;;;;4121895;28;21343;-73
2021/11/09 10:00:56;;;;;;;10.77;4.43;;;12.90;99.90;;;;;;4119675;28;20038;-73
2021/11/09 10:02:58;;;;;;;13.03;4.57;;;13.00;99.90;;;;;;4122813;28;20042;-73
2021/11/09 10:05:08;;;;;;;13.55;4.85;;;13.00;99.90;;;;;;4119793;28;20042;-73
2021/11/09 10:07:13;;;;;;;16.48;4.68;;;12.90;99.90;;;;;;4121589;28;20037;-73
2021/11/09 10:09:31;;;;;;;14.90;4.65;;;13.00;99.90;;;;;;4122194;28;20367;-73
2021/11/09 10:11:37;;;;;;;16.88;4.97;;;13.00;99.90;;;;;;4121898;28;20034;-73
2021/11/09 10:13:39;;;;;;;16.58;5.00;;;13.00;99.90;;;;;;4119743;28;20470;-73
2021/11/09 10:15:46;;;;;;;15.52;4.93;;;12.90;99.90;;;;;;4121349;28;20037;-73
2021/11/09 10:17:49;;;;;;;17.27;5.43;;;12.90;99.90;;;;;;4119775;28;20045;-73
2021/11/09 10:19:50;;;;;;;15.40;5.28;;;12.90;99.90;;;;;;4124908;28;20033;-73
2021/11/09 10:21:51;;;;;;;16.05;4.85;;;12.80;99.90;;;;;;4121574;28;20031;-73
2021/11/09 10:23:51;;;;;;;17.35;5.70;;;12.80;99.90;;;;;;4123357;28;20053;-73
2021/11/09 10:25:59;;;;;;;15.82;4.95;;;12.90;99.90;;;;;;4124508;28;20065;-73
2021/11/09 10:28:06;;;;;;;13.38;4.78;;;12.90;99.90;;;;;;4122892;28;20034;-73
2021/11/09 10:30:14;;;;;;;23.80;6.25;;;12.90;99.90;;;;;;4120483;28;20045;-73
2021/11/09 10:32:17;;;;;;;23.05;6.22;;;12.80;99.90;;;;;;4120917;28;20262;-73
2021/11/09 10:34:27;;;;;;;17.38;5.93;;;12.90;99.90;;;;;;4117642;28;20042;-73
2021/11/09 10:36:30;;;;;;;19.92;5.93;;;12.80;99.90;;;;;;4116878;28;20053;-73
2021/11/09 10:38:32;;;;;;;16.60;5.82;;;12.80;99.90;;;;;;4124686;28;20586;-73
2021/11/09 10:40:42;;;;;;;19.05;5.85;;;12.80;99.90;;;;;;4123803;28;20478;-73
2021/11/09 10:42:46;;;;;;;20.13;5.07;;;12.80;99.90;;;;;;4121190;28;20161;-73
2021/11/09 10:44:52;;;;;;;13.93;4.40;;;12.80;99.90;;;;;;4118987;28;20035;-73
2021/11/09 10:46:54;;;;;;;15.40;3.83;;;12.80;99.90;;;;;;4122492;28;20127;-73
2021/11/09 10:48:54;;;;;;;15.52;4.57;;;12.80;99.90;;;;;;4120579;28;20684;-73
2021/11/09 10:51:02;;;;;;;16.80;4.68;;;12.80;99.90;;;;;;4117288;28;20050;-73
2021/11/09 10:53:17;;;;;;;15.75;4.38;;;12.70;99.90;;;;;;4119244;28;20502;-73
2021/11/09 10:55:23;;;;;;;14.75;4.65;;;12.80;99.90;;;;;;4120384;28;20030;-73
2021/11/09 10:57:39;;;;;;;14.05;4.18;;;12.70;99.90;;;;;;4118520;28;20046;-73
2021/11/09 11:00:19;;;;;;;14.40;4.03;;;12.70;99.90;;;;;;4126632;28;20096;-73
2021/11/09 11:04:33;;;;;;;12.75;4.15;;;12.70;99.90;;;;;;4116105;28;20601;-73
2021/11/09 11:06:41;;;;;;;12.65;4.00;;;12.70;99.90;;;;;;4121016;28;20048;-73
2021/11/09 11:08:43;;;;;;;11.52;3.78;;;12.70;99.90;;;;;;4120418;28;20557;-72
2021/11/09 11:10:43;;;;;;;14.98;3.60;;;12.70;99.90;;;;;;4124023;28;20065;-73
2021/11/09 11:12:44;;;;;;;11.82;3.42;;;12.70;99.90;;;;;;4120467;28;20039;-72
2021/11/09 11:14:46;;;;;;;11.82;3.50;;;12.70;99.90;;;;;;4122558;28;20038;-73
2021/11/09 11:17:03;;;;;;;11.52;3.75;;;12.70;99.90;;;;;;4119230;28;20049;-73
2021/11/09 11:19:04;;;;;;;13.95;3.75;;;12.80;99.90;;;;;;4118062;28;20054;-73
2021/11/09 11:21:07;;;;;;;16.95;3.53;;;12.70;99.90;;;;;;4100832;28;20301;-73
2021/11/09 11:23:09;;;;;;;;;;;12.70;99.90;;;;;;4119048;28;20046;-73
2021/11/09 11:25:10;;;;;;;9.98;3.50;;;12.70;99.90;;;;;;4118068;28;20008;-73
2021/11/09 11:27:12;;;;;;;14.63;3.60;;;12.80;99.90;;;;;;4120978;28;20569;-73
2021/11/09 11:29:18;;;;;;;7.78;3.47;;;12.80;99.90;;;;;;4121980;28;20104;-73
2021/11/09 11:31:20;;;;;;;8.05;3.13;;;12.80;99.90;;;;;;4122439;28;20034;-73
2021/11/09 11:33:21;;;;;;;14.80;3.72;;;12.90;99.90;;;;;;4124080;28;20022;-73
2021/11/09 11:35:22;;;;;;;13.07;3.95;;;12.80;99.90;;;;;;4120968;28;20042;-73
2021/11/09 11:37:22;;;;;;;9.52;3.55;;;12.80;99.90;;;;;;4122604;28;20038;-72
2021/11/09 11:39:27;;;;;;;13.02;3.38;;;12.90;99.90;;;;;;4124182;28;20129;-73
2021/11/09 11:41:34;;;;;;;11.60;3.42;;;13.00;99.90;;;;;;4125303;28;20081;-72
2021/11/09 11:43:46;;;;;;;16.63;4.10;;;13.00;99.90;;;;;;4107115;28;20101;-73
2021/11/09 11:45:51;;;;;;;9.93;3.33;;;13.00;99.90;;;;;;4121314;28;20042;-73
2021/11/09 11:48:06;;;;;;;7.97;3.15;;;13.00;99.90;;;;;;4126135;28;20038;-73
2021/11/09 11:50:06;;;;;;;9.55;2.97;;;13.00;99.90;;;;;;4106208;28;20426;-73
2021/11/09 11:52:14;;;;;;;15.95;4.18;;;13.10;99.90;;;;;;4122747;28;20038;-72
2021/11/09 11:54:35;;;;;;;15.27;3.97;;;13.10;99.90;;;;;;4124235;28;20117;-72
2021/11/09 11:56:39;;;;;;;12.40;3.97;;;13.00;99.90;;;;;;4123800;28;20046;-72
2021/11/09 11:58:40;;;;;;;13.95;3.67;;;13.00;99.90;;;;;;4121059;28;20038;-72
2021/11/09 12:00:52;;;;;;;10.52;3.42;;;13.00;99.90;;;;;;4124413;28;20437;-72
2021/11/09 12:02:53;;;;;;;10.50;3.38;;;13.00;99.90;;;;;;4122395;28;20047;-72
2021/11/09 12:04:55;;;;;;;12.35;3.63;;;13.00;99.90;;;;;;4118906;28;20161;-72
2021/11/09 12:06:55;;;;;;;13.73;3.42;;;13.10;99.90;;;;;;4121835;28;20130;-73
2021/11/09 12:08:57;;;;;;;10.95;3.45;;;13.00;99.90;;;;;;4123826;28;20672;-73
2021/11/09 12:10:59;;;;;;;11.00;3.60;;;13.00;99.90;;;;;;4123914;28;20300;-73
2021/11/09 12:13:05;;;;;;;11.30;3.58;;;13.00;99.90;;;;;;4123858;28;20050;-73
2021/11/09 12:15:12;;;;;;;9.30;3.10;;;13.00;99.90;;;;;;4119747;28;20134;-75
2021/11/09 12:17:29;;;;;;;8.95;3.03;;;13.00;99.90;;;;;;4124644;28;20034;-72
2021/11/09 12:19:37;;;;;;;16.35;3.50;;;13.00;99.90;;;;;;4120497;28;20043;-72
2021/11/09 12:21:38;;;;;;;12.45;3.70;;;13.00;99.90;;;;;;4120984;28;20785;-73
2021/11/09 12:23:39;;;;;;;12.18;3.45;;;13.00;99.90;;;;;;4125215;28;20053;-73
2021/11/09 12:25:40;;;;;;;8.80;3.00;;;13.00;99.90;;;;;;4114486;28;20434;-74
2021/11/09 12:27:47;;;;;;;12.30;4.45;;;13.10;99.90;;;;;;4125123;28;20066;-73
2021/11/09 12:29:53;;;;;;;11.15;3.80;;;13.10;99.90;;;;;;4120585;28;20044;-75
2021/11/09 12:31:54;;;;;;;12.77;3.65;;;13.10;99.90;;;;;;4124068;28;20060;-74
2021/11/09 12:33:56;;;;;;;10.95;3.33;;;13.10;99.90;;;;;;4122753;28;20038;-74
2021/11/09 12:36:02;;;;;;;10.05;3.67;;;13.10;99.90;;;;;;4123820;28;20379;-72
2021/11/09 12:38:09;;;;;;;15.35;3.72;;;13.10;99.90;;;;;;4122828;28;20038;-72
2021/11/09 12:40:41;;;;;;;7.30;2.83;;;13.10;99.90;;;;;;4120417;28;20140;-72
2021/11/09 12:43:03;;;;;;;11.15;3.08;;;13.10;99.90;;;;;;4105667;28;20046;-72